Página principal
METAR-TAF:

METAR-TAF

Aeroportos :

Aeroporto Internacional Jinnah

Carachi, Paquistão

latitude: 24-54N, longitude: 067-08E, altura: 21 m

Observação actual do tempo

O boletim foi feito há 39 minutos, às 12:55 UTC
Vento 15 kt de es-nordeste
Temperatura 20°C
Humidade 40%
Pressão 1020 hPa
Visibilidade: 4000 m
bruma

METAR: OPKC 161255Z 06015KT 4000 HZ NSC 20/06 Q1020 NOSIG

Hora: 18:34 (13:34 UTC)

Previsão

O boletim foi feito há 3 horas e 34 minutos, às 10:00 UTC
Previsão válida de 16 às 12 UTC a 17 às 18 UTC
Vento 12 kt de nordeste
Visibilidade: 5000 m
bruma
Temporariamente
de 17 às 01 UTC a 17 às 05 UTC
Vento 8 kt de nor-nordeste
Visibilidade: 2000 m
Nuvens fragmentadasa uma altura de 10000 ft
fumo
A partir de 17 às 0700 UTC
Vento 10 kt de es-nordeste com rajadas de 20 kt
Visibilidade: 6000 m

TAF: OPKC 161000Z 1612/1718 05012KT 5000 HZ NSC TEMPO 1701/1705 03008KT 2000 FU BKN100 FM170700 06010G20KT 6000 NSC

Observações e previsões do tempo de mais de 4000 aeroportos (mensagens METAR e TAF).

As estações disponíveis são os pontos amarelos e vermelhos sobre o mapa.

Mova o rato sobre o mapa para ver o nome da estação.

Depois clique no ponto para visualizar as observações e previsões meteorológicas.

Para alterar o mapa : clique nos botões verdes com uma cruz preta para aumentar o zoom; no botão verde com uma pitada de zoom; ou nas setas verdes para mapas adjacentes.


METAR-TAF: